createdAt,value
2022-12-15T00:01:49.725Z,42.78
2022-12-15T00:04:34.538Z,41.05
2022-12-15T00:07:19.242Z,39.40
2022-12-15T00:10:04.376Z,33.20
2022-12-15T00:12:49.237Z,39.25
2022-12-15T00:15:34.068Z,35.92
2022-12-15T00:18:25.963Z,26.25
2022-12-15T00:21:15.366Z,42.45
2022-12-15T00:24:00.083Z,35.63
2022-12-15T00:26:44.883Z,30.10
2022-12-15T00:29:29.588Z,27.60
2022-12-15T00:32:14.252Z,35.73
2022-12-15T00:34:59.199Z,26.70
2022-12-15T00:37:44.100Z,35.00
2022-12-15T00:40:11.058Z,33.03
2022-12-15T00:42:37.517Z,36.03
2022-12-15T00:45:04.134Z,35.28
2022-12-15T00:47:32.438Z,35.85
2022-12-15T00:50:17.894Z,39.72
2022-12-15T00:53:03.327Z,32.08
2022-12-15T00:55:48.112Z,37.80
2022-12-15T00:58:32.888Z,33.70
2022-12-15T01:01:24.897Z,28.27
2022-12-15T01:04:10.128Z,35.38
2022-12-15T01:06:55.201Z,32.30
2022-12-15T01:09:39.870Z,36.55
2022-12-15T01:12:25.161Z,33.03
2022-12-15T01:15:09.924Z,38.65
2022-12-15T01:17:54.683Z,26.60
2022-12-15T01:20:21.222Z,35.88
2022-12-15T01:22:54.029Z,32.25
2022-12-15T01:25:23.255Z,36.80
2022-12-15T01:27:50.381Z,29.98
2022-12-15T01:30:23.200Z,32.60
2022-12-15T01:32:49.922Z,29.45
2022-12-15T01:35:17.611Z,32.17
2022-12-15T01:37:44.474Z,34.13
2022-12-15T01:40:35.608Z,33.42
2022-12-15T01:43:02.145Z,30.08
2022-12-15T01:45:28.384Z,30.92
2022-12-15T01:48:09.217Z,29.38
2022-12-15T01:50:42.183Z,36.08
2022-12-15T01:53:09.475Z,32.03
2022-12-15T01:55:36.854Z,29.45
2022-12-15T01:58:06.802Z,30.33
2022-12-15T02:00:34.134Z,33.53
2022-12-15T02:03:02.008Z,25.20
2022-12-15T02:05:31.657Z,29.67
2022-12-15T02:08:00.948Z,28.27
2022-12-15T02:10:42.393Z,29.60
2022-12-15T02:14:04.181Z,28.40
2022-12-15T02:17:29.472Z,26.83
2022-12-15T02:20:43.946Z,31.08
2022-12-15T02:23:41.229Z,26.73
2022-12-15T02:26:38.219Z,27.77
2022-12-15T02:29:36.018Z,25.25
2022-12-15T02:32:14.898Z,27.40
2022-12-15T02:34:57.465Z,36.08
2022-12-15T02:37:31.712Z,25.88
2022-12-15T02:39:58.153Z,31.90
2022-12-15T02:42:28.406Z,27.85
2022-12-15T02:45:09.981Z,26.67
2022-12-15T02:47:46.156Z,26.95
2022-12-15T02:50:37.253Z,29.20
2022-12-15T02:53:34.354Z,27.73
2022-12-15T02:56:29.888Z,26.05
2022-12-15T02:59:02.017Z,28.17
2022-12-15T03:01:36.782Z,23.63
2022-12-15T03:04:07.328Z,25.88
2022-12-15T03:06:33.784Z,23.20
2022-12-15T03:09:00.125Z,27.42
2022-12-15T03:11:26.956Z,26.52
2022-12-15T03:13:54.060Z,25.45
2022-12-15T03:16:21.153Z,31.00
2022-12-15T03:18:47.684Z,27.00
2022-12-15T03:21:14.170Z,35.35
2022-12-15T03:23:40.576Z,27.98
2022-12-15T03:26:06.935Z,30.15
2022-12-15T03:28:34.055Z,28.48
2022-12-15T03:31:00.415Z,29.00
2022-12-15T03:33:26.774Z,23.55
2022-12-15T03:35:53.065Z,23.25
2022-12-15T03:38:19.406Z,25.17
2022-12-15T03:40:45.750Z,28.15
2022-12-15T03:43:12.171Z,27.83
2022-12-15T03:45:38.567Z,25.40
2022-12-15T03:48:05.019Z,24.15
2022-12-15T03:50:31.373Z,24.42
2022-12-15T03:53:02.507Z,28.02
2022-12-15T03:55:29.468Z,26.70
2022-12-15T03:57:56.268Z,25.90
2022-12-15T04:00:24.601Z,25.58
2022-12-15T04:02:51.654Z,29.50
2022-12-15T04:05:22.585Z,29.45
2022-12-15T04:07:48.906Z,26.15
2022-12-15T04:10:15.473Z,24.60
2022-12-15T04:12:41.925Z,30.50
2022-12-15T04:15:10.334Z,27.80
2022-12-15T04:17:36.938Z,26.73
2022-12-15T04:20:10.256Z,25.17
2022-12-15T04:22:42.021Z,26.52
2022-12-15T04:25:30.109Z,29.25
2022-12-15T04:28:14.941Z,27.48
2022-12-15T04:31:04.303Z,25.25
2022-12-15T04:33:50.170Z,26.15
2022-12-15T04:36:35.363Z,29.67
2022-12-15T04:39:22.966Z,26.75
2022-12-15T04:42:08.278Z,27.50
2022-12-15T04:44:53.315Z,31.23
2022-12-15T04:47:38.092Z,28.25
2022-12-15T04:50:23.314Z,28.03
2022-12-15T04:53:07.975Z,24.48
2022-12-15T04:55:56.363Z,25.95
2022-12-15T04:58:41.595Z,29.45
2022-12-15T05:01:26.455Z,28.02
2022-12-15T05:04:11.628Z,27.05
2022-12-15T05:06:56.400Z,29.02
2022-12-15T05:09:41.165Z,29.40
2022-12-15T05:12:25.973Z,30.43
2022-12-15T05:15:10.788Z,30.05
2022-12-15T05:17:55.567Z,28.63
2022-12-15T05:20:40.503Z,31.57
2022-12-15T05:23:25.195Z,27.80
2022-12-15T05:26:10.123Z,29.20
2022-12-15T05:28:54.845Z,30.70
2022-12-15T05:31:39.708Z,24.87
2022-12-15T05:34:06.887Z,31.17
2022-12-15T05:36:33.285Z,25.85
2022-12-15T05:38:59.630Z,23.85
2022-12-15T05:41:25.977Z,28.08
2022-12-15T05:43:52.393Z,27.17
2022-12-15T05:46:19.866Z,28.90
2022-12-15T05:48:46.356Z,31.42
2022-12-15T05:51:13.297Z,30.77
2022-12-15T05:53:40.893Z,28.73
2022-12-15T05:56:13.222Z,29.52
2022-12-15T05:58:45.192Z,26.13
2022-12-15T06:01:15.365Z,27.60
2022-12-15T06:03:42.363Z,27.23
2022-12-15T06:06:10.158Z,29.23
2022-12-15T06:08:39.322Z,27.27
2022-12-15T06:11:06.201Z,29.85
2022-12-15T06:13:35.361Z,27.83
2022-12-15T06:16:05.000Z,26.30
2022-12-15T06:18:37.440Z,25.80
2022-12-15T06:21:06.978Z,29.33
2022-12-15T06:23:34.553Z,28.40
2022-12-15T06:26:12.515Z,26.67
2022-12-15T06:28:38.883Z,25.75
2022-12-15T06:31:07.394Z,29.67
2022-12-15T06:33:34.517Z,25.38
2022-12-15T06:36:07.069Z,26.15
2022-12-15T06:38:33.867Z,26.48
2022-12-15T06:41:01.341Z,27.75
2022-12-15T06:43:28.964Z,36.30
2022-12-15T06:45:56.126Z,28.23
2022-12-15T06:48:23.783Z,26.55
2022-12-15T06:50:51.195Z,26.13
2022-12-15T06:53:19.365Z,27.17
2022-12-15T06:55:46.291Z,29.40
2022-12-15T06:58:13.996Z,28.83
2022-12-15T07:00:45.462Z,30.63
2022-12-15T07:03:18.238Z,27.23
2022-12-15T07:05:45.554Z,31.02
2022-12-15T07:08:16.483Z,28.35
2022-12-15T07:10:44.609Z,27.98
2022-12-15T07:13:12.454Z,30.77
2022-12-15T07:15:39.726Z,26.88
2022-12-15T07:18:06.614Z,30.63
2022-12-15T07:20:33.366Z,29.42
2022-12-15T07:23:00.646Z,29.17
2022-12-15T07:25:26.985Z,31.98
2022-12-15T07:27:53.285Z,31.38
2022-12-15T07:30:19.626Z,35.17
2022-12-15T07:32:50.177Z,30.20
2022-12-15T07:35:17.839Z,30.73
2022-12-15T07:37:44.159Z,33.10
2022-12-15T07:40:11.017Z,34.83
2022-12-15T07:42:37.410Z,32.25
2022-12-15T07:45:05.413Z,35.15
2022-12-15T07:47:32.107Z,32.60
2022-12-15T07:49:58.719Z,29.08
2022-12-15T07:52:25.336Z,32.55
2022-12-15T07:54:51.729Z,30.63
2022-12-15T07:57:18.464Z,30.60
2022-12-15T07:59:44.849Z,32.15
2022-12-15T08:02:12.473Z,33.80
2022-12-15T08:04:40.029Z,26.20
2022-12-15T08:07:07.072Z,31.27
2022-12-15T08:09:33.414Z,30.90
2022-12-15T08:11:59.767Z,29.48
2022-12-15T08:14:26.208Z,36.75
2022-12-15T08:16:52.621Z,32.10
2022-12-15T08:19:19.145Z,35.78
2022-12-15T08:21:46.753Z,33.75
2022-12-15T08:24:14.192Z,34.78
2022-12-15T08:26:42.060Z,31.77
2022-12-15T08:31:58.528Z,32.90
2022-12-15T08:34:24.997Z,31.33
2022-12-15T08:36:54.446Z,32.58
2022-12-15T08:39:29.869Z,35.03
2022-12-15T08:41:56.185Z,30.90
2022-12-15T08:44:22.745Z,29.63
2022-12-15T08:46:49.044Z,32.72
2022-12-15T08:49:21.516Z,33.17
2022-12-15T08:51:50.000Z,42.53
2022-12-15T08:54:17.125Z,34.05
2022-12-15T08:56:43.457Z,32.47
2022-12-15T08:59:09.935Z,34.50
2022-12-15T09:01:40.085Z,34.90
2022-12-15T09:04:06.722Z,32.60
2022-12-15T09:06:35.397Z,33.25
2022-12-15T09:09:07.703Z,38.65
2022-12-15T09:11:34.595Z,32.42
2022-12-15T09:14:01.097Z,32.53
2022-12-15T09:16:28.249Z,35.22
2022-12-15T09:18:57.081Z,30.98
2022-12-15T09:21:26.168Z,35.72
2022-12-15T09:23:57.620Z,37.60
2022-12-15T09:26:24.022Z,35.50
2022-12-15T09:28:51.165Z,35.22
2022-12-15T09:31:21.915Z,35.15
2022-12-15T09:33:50.436Z,31.98
2022-12-15T09:36:16.922Z,31.95
2022-12-15T09:38:44.014Z,39.97
2022-12-15T09:41:13.320Z,38.80
2022-12-15T09:44:03.129Z,34.10
2022-12-15T09:46:50.297Z,34.90
2022-12-15T09:49:35.431Z,34.65
2022-12-15T09:52:14.426Z,35.58
2022-12-15T09:54:43.408Z,34.35
2022-12-15T09:57:56.064Z,34.13
2022-12-15T10:00:36.907Z,31.38
2022-12-15T10:03:45.211Z,34.97
2022-12-15T10:06:18.447Z,33.47
2022-12-15T10:08:55.860Z,32.15
2022-12-15T10:11:35.798Z,33.63
2022-12-15T10:14:15.512Z,33.63
2022-12-15T10:17:21.433Z,31.48
2022-12-15T10:20:03.297Z,33.45
2022-12-15T10:22:39.032Z,34.10
2022-12-15T10:25:30.452Z,38.10
2022-12-15T10:28:15.708Z,39.40
2022-12-15T10:31:00.059Z,36.33
2022-12-15T10:33:33.295Z,45.45
2022-12-15T10:36:00.123Z,37.60
2022-12-15T10:38:40.458Z,38.17
2022-12-15T10:41:12.308Z,39.35
2022-12-15T10:43:41.848Z,37.45
2022-12-15T10:46:13.812Z,44.42
2022-12-15T10:48:43.971Z,32.90
2022-12-15T10:51:31.500Z,39.05
2022-12-15T10:54:04.466Z,43.03
2022-12-15T10:56:33.890Z,36.60
2022-12-15T10:59:39.385Z,40.85
2022-12-15T11:02:25.079Z,35.75
2022-12-15T11:04:59.470Z,35.65
2022-12-15T11:07:46.053Z,34.28
2022-12-15T11:10:21.557Z,31.55
2022-12-15T11:13:10.376Z,34.90
2022-12-15T11:15:51.639Z,35.00
2022-12-15T11:18:21.021Z,35.03
2022-12-15T11:20:54.405Z,33.70
2022-12-15T11:23:34.193Z,35.13
2022-12-15T11:26:07.429Z,37.60
2022-12-15T11:29:00.223Z,38.33
2022-12-15T11:31:33.404Z,37.72
2022-12-15T11:33:59.844Z,36.83
2022-12-15T11:36:53.790Z,36.83
2022-12-15T11:39:32.292Z,33.03
2022-12-15T11:42:22.469Z,38.40
2022-12-15T11:45:03.085Z,33.25
2022-12-15T11:47:55.596Z,37.65
2022-12-15T11:50:41.075Z,32.70
2022-12-15T11:53:18.578Z,35.20
2022-12-15T11:56:16.011Z,37.85
2022-12-15T11:59:17.568Z,37.70
2022-12-15T12:02:05.715Z,33.30
2022-12-15T12:05:19.885Z,36.40
2022-12-15T12:07:58.115Z,34.75
2022-12-15T12:10:40.007Z,36.03
2022-12-15T12:13:34.063Z,34.17
2022-12-15T12:16:26.942Z,33.60
2022-12-15T12:19:51.991Z,35.70
2022-12-15T12:22:29.983Z,34.65
2022-12-15T12:25:03.519Z,35.03
2022-12-15T12:27:42.844Z,34.58
2022-12-15T12:30:18.501Z,33.40
2022-12-15T12:32:50.934Z,36.90
2022-12-15T12:35:31.054Z,34.13
2022-12-15T12:38:03.866Z,32.92
2022-12-15T12:40:55.827Z,38.17
2022-12-15T12:43:38.146Z,36.55
2022-12-15T12:46:25.447Z,33.75
2022-12-15T12:49:11.358Z,37.47
2022-12-15T12:51:41.341Z,34.63
2022-12-15T12:54:33.557Z,38.00
2022-12-15T12:57:00.953Z,36.67
2022-12-15T12:59:30.377Z,40.67
2022-12-15T13:02:15.218Z,37.67
2022-12-15T13:04:44.322Z,37.30
2022-12-15T13:07:29.299Z,35.97
2022-12-15T13:10:07.802Z,33.88
2022-12-15T13:12:53.200Z,32.45
2022-12-15T13:15:35.800Z,35.05
2022-12-15T13:18:25.171Z,37.80
2022-12-15T13:20:55.275Z,40.28
2022-12-15T13:23:21.630Z,36.42
2022-12-15T13:25:57.125Z,35.92
2022-12-15T13:31:21.717Z,31.10
2022-12-15T13:33:51.249Z,30.63
2022-12-15T13:36:36.437Z,34.45
2022-12-15T13:39:23.044Z,33.30
2022-12-15T13:44:43.879Z,35.05
2022-12-15T13:47:25.045Z,32.20
2022-12-15T13:55:39.151Z,32.70
2022-12-15T13:58:19.289Z,33.70
2022-12-15T14:00:58.037Z,34.17
2022-12-15T14:03:25.825Z,34.55
2022-12-15T14:05:55.285Z,39.17
2022-12-15T14:08:23.977Z,32.47
2022-12-15T14:10:54.620Z,37.33
2022-12-15T14:13:24.945Z,37.83
2022-12-15T14:15:58.105Z,36.88
2022-12-15T14:18:30.502Z,33.00
2022-12-15T14:20:58.562Z,36.95
2022-12-15T14:23:38.362Z,33.75
2022-12-15T14:26:08.435Z,37.17
2022-12-15T14:28:36.856Z,38.30
2022-12-15T14:31:17.486Z,36.15
2022-12-15T14:33:46.780Z,34.38
2022-12-15T14:36:20.386Z,38.80
2022-12-15T14:39:18.251Z,42.33
2022-12-15T14:41:49.198Z,38.35
2022-12-15T14:44:31.906Z,32.90
2022-12-15T14:47:16.499Z,35.92
2022-12-15T14:49:45.313Z,34.63
2022-12-15T14:52:27.052Z,38.60
2022-12-15T14:55:02.191Z,39.47
2022-12-15T14:57:41.114Z,41.33
2022-12-15T15:00:32.429Z,36.00
2022-12-15T15:03:07.607Z,30.52
2022-12-15T15:06:01.189Z,32.70
2022-12-15T15:08:32.613Z,31.15
2022-12-15T15:11:04.630Z,29.80
2022-12-15T15:13:40.850Z,29.98
2022-12-15T15:16:15.660Z,32.35
2022-12-15T15:18:43.279Z,35.72
2022-12-15T15:21:21.388Z,32.05
2022-12-15T15:24:11.944Z,34.10
2022-12-15T15:26:44.095Z,33.38
2022-12-15T15:29:32.213Z,33.72
2022-12-15T15:32:22.382Z,33.13
2022-12-15T15:34:49.659Z,29.33
2022-12-15T15:37:22.568Z,37.00
2022-12-15T15:39:50.407Z,39.40
2022-12-15T15:42:17.963Z,38.08
2022-12-15T15:44:47.050Z,37.67
2022-12-15T15:47:25.476Z,41.83
2022-12-15T15:49:58.161Z,40.13
2022-12-15T15:52:29.893Z,41.55
2022-12-15T15:54:56.334Z,41.90
2022-12-15T15:57:22.687Z,41.13
2022-12-15T15:59:49.106Z,40.65
2022-12-15T16:02:18.452Z,39.42
2022-12-15T16:04:45.567Z,36.65
2022-12-15T16:07:26.756Z,35.70
2022-12-15T16:09:53.784Z,39.88
2022-12-15T16:12:50.122Z,37.15
2022-12-15T16:17:47.795Z,35.28
2022-12-15T16:20:17.217Z,39.58
2022-12-15T16:22:47.100Z,36.38
2022-12-15T16:25:25.790Z,36.58
2022-12-15T16:27:52.196Z,36.85
2022-12-15T16:30:23.321Z,39.75
2022-12-15T16:32:50.477Z,36.35
2022-12-15T16:35:17.810Z,38.15
2022-12-15T16:37:49.075Z,37.58
2022-12-15T16:40:25.342Z,41.67
2022-12-15T16:42:54.009Z,45.22
2022-12-15T16:45:21.882Z,43.17
2022-12-15T16:47:48.626Z,42.88
2022-12-15T16:50:18.443Z,42.97
2022-12-15T16:52:47.536Z,40.53
2022-12-15T16:55:24.008Z,41.78
2022-12-15T16:57:51.876Z,42.58
2022-12-15T17:00:23.324Z,42.85
2022-12-15T17:02:49.923Z,43.70
2022-12-15T17:05:17.199Z,38.97
2022-12-15T17:07:47.817Z,43.17
2022-12-15T17:10:33.387Z,43.47
2022-12-15T17:13:13.175Z,42.45
2022-12-15T17:15:40.091Z,40.95
2022-12-15T17:18:06.851Z,43.45
2022-12-15T17:20:33.418Z,42.95
2022-12-15T17:23:04.110Z,39.17
2022-12-15T17:26:09.719Z,40.70
2022-12-15T17:28:26.795Z,41.17
2022-12-15T17:30:54.104Z,40.78
2022-12-15T17:33:24.096Z,41.78
2022-12-15T17:35:54.253Z,47.10
2022-12-15T17:38:22.594Z,45.13
2022-12-15T17:40:51.656Z,47.83
2022-12-15T17:43:28.171Z,46.17
2022-12-15T17:45:58.337Z,47.22
2022-12-15T17:48:25.285Z,45.10
2022-12-15T17:50:53.502Z,45.17
2022-12-15T17:53:22.351Z,49.28
2022-12-15T17:55:49.786Z,45.03
2022-12-15T17:58:22.226Z,48.90
2022-12-15T18:00:51.781Z,49.97
2022-12-15T18:03:22.737Z,49.92
2022-12-15T18:05:52.926Z,51.63
2022-12-15T18:08:23.455Z,45.63
2022-12-15T18:10:53.336Z,37.33
2022-12-15T18:13:35.453Z,46.63
2022-12-15T18:16:02.139Z,42.03
2022-12-15T18:18:28.753Z,40.90
2022-12-15T18:21:00.229Z,44.95
2022-12-15T18:23:30.904Z,36.25
2022-12-15T18:26:02.848Z,43.45
2022-12-15T18:28:32.345Z,37.65
2022-12-15T18:31:06.645Z,43.97
2022-12-15T18:33:33.625Z,42.38
2022-12-15T18:36:00.329Z,38.38
2022-12-15T18:38:28.691Z,37.55
2022-12-15T18:40:58.183Z,37.97
2022-12-15T18:43:28.777Z,42.13
2022-12-15T18:45:55.969Z,38.78
2022-12-15T18:48:28.544Z,39.85
2022-12-15T18:50:57.138Z,37.13
2022-12-15T18:53:30.832Z,44.70
2022-12-15T18:56:00.580Z,37.45
2022-12-15T18:58:29.597Z,39.15
2022-12-15T19:00:58.331Z,40.28
2022-12-15T19:03:26.338Z,40.47
2022-12-15T19:06:00.116Z,36.78
2022-12-15T19:08:28.193Z,33.20
2022-12-15T19:10:57.085Z,38.58
2022-12-15T19:13:28.607Z,36.70
2022-12-15T19:15:55.521Z,35.70
2022-12-15T19:18:42.860Z,37.72
2022-12-15T19:21:38.532Z,35.10
2022-12-15T19:24:07.409Z,34.00
2022-12-15T19:26:33.747Z,39.38
2022-12-15T19:29:00.275Z,34.03
2022-12-15T19:31:26.729Z,37.25
2022-12-15T19:33:53.326Z,39.35
2022-12-15T19:36:25.708Z,39.08
2022-12-15T19:38:54.800Z,41.58
2022-12-15T19:41:21.441Z,43.58
2022-12-15T19:43:47.969Z,40.20
2022-12-15T19:46:17.678Z,42.47
2022-12-15T19:48:44.460Z,46.35
2022-12-15T19:51:13.421Z,39.53
2022-12-15T19:53:40.661Z,42.45
2022-12-15T19:56:07.831Z,43.65
2022-12-15T19:58:35.386Z,43.03
2022-12-15T20:01:06.188Z,39.45
2022-12-15T20:03:34.322Z,38.47
2022-12-15T20:06:02.706Z,41.22
2022-12-15T20:08:38.100Z,34.15
2022-12-15T20:13:31.905Z,32.60
2022-12-15T20:15:58.574Z,30.73
2022-12-15T20:18:24.967Z,39.70
2022-12-15T20:20:51.419Z,38.97
2022-12-15T20:23:21.239Z,39.30
2022-12-15T20:25:47.880Z,38.47
2022-12-15T20:28:18.986Z,38.17
2022-12-15T20:30:46.232Z,40.60
2022-12-15T20:33:13.082Z,40.63
2022-12-15T20:35:40.478Z,46.78
2022-12-15T20:38:24.982Z,60.13
2022-12-15T20:40:52.508Z,59.25
2022-12-15T20:43:21.582Z,48.70
2022-12-15T20:45:54.761Z,49.28
2022-12-15T20:48:24.636Z,48.90
2022-12-15T20:50:51.047Z,54.58
2022-12-15T20:53:19.940Z,61.30
2022-12-15T20:55:48.202Z,55.38
2022-12-15T20:58:15.229Z,50.42
2022-12-15T21:00:42.103Z,48.95
2022-12-15T21:03:27.962Z,47.45
2022-12-15T21:05:56.515Z,49.65
2022-12-15T21:08:27.303Z,43.78
2022-12-15T21:11:00.069Z,47.15
2022-12-15T21:13:30.066Z,43.63
2022-12-15T21:15:56.718Z,59.10
2022-12-15T21:19:03.956Z,53.20
2022-12-15T21:21:18.644Z,58.42
2022-12-15T21:23:45.681Z,60.10
2022-12-15T21:26:20.223Z,54.35
2022-12-15T21:28:48.693Z,42.65
2022-12-15T21:31:16.508Z,70.55
2022-12-15T21:33:43.275Z,59.05
2022-12-15T21:36:16.700Z,53.20
2022-12-15T21:38:45.802Z,50.67
2022-12-15T21:41:15.497Z,53.17
2022-12-15T21:43:42.817Z,49.80
2022-12-15T21:46:19.051Z,44.13
2022-12-15T21:49:06.261Z,43.75
2022-12-15T21:51:37.274Z,47.03
2022-12-15T21:54:05.093Z,49.75
2022-12-15T21:56:32.012Z,47.95
2022-12-15T21:58:59.008Z,47.03
2022-12-15T22:01:29.754Z,53.78
2022-12-15T22:03:58.453Z,51.08
2022-12-15T22:06:27.921Z,48.83
2022-12-15T22:08:58.508Z,49.28
2022-12-15T22:11:28.136Z,49.80
2022-12-15T22:13:55.855Z,47.95
2022-12-15T22:16:23.003Z,56.58
2022-12-15T22:18:58.613Z,56.42
2022-12-15T22:21:25.648Z,50.97
2022-12-15T22:23:52.283Z,49.45
2022-12-15T22:26:24.339Z,47.30
2022-12-15T22:28:51.571Z,48.22
2022-12-15T22:31:18.497Z,51.00
2022-12-15T22:33:44.934Z,53.88
2022-12-15T22:36:11.368Z,40.15
2022-12-15T22:38:37.836Z,41.20
2022-12-15T22:41:05.673Z,45.13
2022-12-15T22:43:40.826Z,38.50
2022-12-15T22:46:12.283Z,39.63
2022-12-15T22:48:42.067Z,40.20
2022-12-15T22:51:12.957Z,41.80
2022-12-15T22:53:39.445Z,40.38
2022-12-15T22:56:15.918Z,42.45
2022-12-15T22:58:47.114Z,46.15
2022-12-15T23:01:13.750Z,48.35
2022-12-15T23:03:40.121Z,48.08
2022-12-15T23:06:06.839Z,46.05
2022-12-15T23:08:33.162Z,44.97
2022-12-15T23:11:18.949Z,39.92
2022-12-15T23:16:21.652Z,34.83
2022-12-15T23:18:50.636Z,35.25
2022-12-15T23:21:18.988Z,33.70
2022-12-15T23:23:45.703Z,36.08
2022-12-15T23:26:13.009Z,33.13
2022-12-15T23:28:40.470Z,32.80
2022-12-15T23:31:07.520Z,35.22
2022-12-15T23:33:34.750Z,36.08
2022-12-15T23:36:02.228Z,39.33
2022-12-15T23:38:29.404Z,38.95
2022-12-15T23:40:56.902Z,33.95
2022-12-15T23:43:25.118Z,32.50
2022-12-15T23:46:05.573Z,30.55
2022-12-15T23:48:34.917Z,31.80
2022-12-15T23:51:05.976Z,34.30
2022-12-15T23:53:33.305Z,36.65
2022-12-15T23:56:11.496Z,36.58
2022-12-15T23:58:39.491Z,30.70
